createdAt,value
2022-08-22T00:01:34.057Z,14.80
2022-08-22T00:02:45.054Z,17.70
2022-08-22T00:02:46.055Z,16.40
2022-08-22T00:02:54.938Z,15.10
2022-08-22T00:02:56.261Z,16.20
2022-08-22T00:02:57.281Z,17.10
2022-08-22T00:02:58.481Z,16.60
2022-08-22T00:03:15.317Z,14.80
2022-08-22T00:04:18.133Z,14.80
2022-08-22T00:06:59.874Z,13.50
2022-08-22T00:09:39.172Z,14.60
2022-08-22T00:12:22.625Z,14.60
2022-08-22T00:15:02.931Z,14.50
2022-08-22T00:17:48.751Z,14.40
2022-08-22T00:20:28.161Z,14.40
2022-08-22T00:23:17.476Z,14.50
2022-08-22T00:26:01.443Z,14.50
2022-08-22T00:28:39.119Z,14.60
2022-08-22T00:31:23.785Z,14.80
2022-08-22T00:34:01.349Z,14.90
2022-08-22T00:36:40.514Z,15.00
2022-08-22T00:39:18.568Z,15.00
2022-08-22T00:42:36.619Z,15.10
2022-08-22T00:45:45.831Z,15.30
2022-08-22T00:48:41.667Z,15.50
2022-08-22T00:52:14.379Z,15.70
2022-08-22T00:55:07.982Z,15.70
2022-08-22T00:58:02.966Z,15.70
2022-08-22T01:00:39.931Z,15.60
2022-08-22T01:03:46.749Z,15.60
2022-08-22T01:06:29.348Z,15.40
2022-08-22T01:09:15.380Z,15.40
2022-08-22T01:12:34.162Z,15.20
2022-08-22T01:15:09.775Z,15.10
2022-08-22T01:18:04.280Z,15.10
2022-08-22T01:21:37.882Z,15.10
2022-08-22T01:31:20.756Z,15.40
2022-08-22T01:34:45.566Z,15.50
2022-08-22T01:38:01.969Z,15.50
2022-08-22T01:41:20.463Z,15.50
2022-08-22T01:44:25.787Z,15.50
2022-08-22T01:47:05.047Z,15.40
2022-08-22T01:49:47.984Z,15.40
2022-08-22T01:52:30.144Z,15.40
2022-08-22T01:55:08.000Z,15.30
2022-08-22T01:57:53.227Z,15.30
2022-08-22T02:00:35.207Z,15.20
2022-08-22T02:03:24.227Z,15.20
2022-08-22T02:06:03.961Z,15.10
2022-08-22T02:08:45.736Z,15.30
2022-08-22T02:11:39.563Z,15.00
2022-08-22T02:14:27.331Z,15.00
2022-08-22T02:17:10.403Z,15.00
2022-08-22T02:19:51.180Z,14.90
2022-08-22T02:22:33.985Z,14.90
2022-08-22T02:25:13.389Z,14.80
2022-08-22T02:27:56.681Z,14.80
2022-08-22T02:30:43.144Z,14.80
2022-08-22T02:33:27.605Z,14.70
2022-08-22T02:36:03.528Z,14.00
2022-08-22T02:38:39.835Z,14.70
2022-08-22T02:41:22.838Z,14.60
2022-08-22T02:43:58.141Z,14.60
2022-08-22T02:46:43.113Z,14.60
2022-08-22T02:49:23.537Z,14.60
2022-08-22T02:52:08.197Z,14.60
2022-08-22T02:54:48.458Z,14.60
2022-08-22T02:57:31.456Z,14.50
2022-08-22T03:00:31.313Z,14.40
2022-08-22T03:03:16.977Z,14.40
2022-08-22T03:06:01.403Z,14.40
2022-08-22T03:08:36.260Z,14.40
2022-08-22T03:11:26.952Z,14.40
2022-08-22T03:14:15.107Z,14.40
2022-08-22T03:16:53.711Z,14.40
2022-08-22T03:19:32.833Z,14.30
2022-08-22T03:22:08.386Z,13.20
2022-08-22T03:24:51.515Z,14.30
2022-08-22T03:27:33.152Z,14.20
2022-08-22T03:30:11.189Z,14.20
2022-08-22T03:32:54.575Z,14.20
2022-08-22T03:35:38.490Z,14.20
2022-08-22T03:38:21.834Z,14.10
2022-08-22T03:41:16.459Z,14.10
2022-08-22T03:47:28.304Z,14.00
2022-08-22T03:50:44.853Z,14.00
2022-08-22T03:53:54.569Z,14.00
2022-08-22T03:57:01.027Z,13.90
2022-08-22T04:00:10.663Z,13.80
2022-08-22T04:03:13.095Z,13.80
2022-08-22T04:06:27.309Z,13.80
2022-08-22T04:10:15.894Z,13.80
2022-08-22T04:16:07.996Z,13.90
2022-08-22T04:19:13.621Z,14.00
2022-08-22T04:22:08.489Z,14.00
2022-08-22T04:24:57.270Z,14.80
2022-08-22T04:27:33.975Z,14.10
2022-08-22T04:30:20.836Z,14.20
2022-08-22T04:32:59.713Z,14.40
2022-08-22T04:35:35.327Z,14.50
2022-08-22T04:38:13.393Z,14.70
2022-08-22T04:40:50.212Z,14.70
2022-08-22T04:43:26.981Z,14.70
2022-08-22T04:46:03.434Z,14.70
2022-08-22T04:48:41.325Z,14.70
2022-08-22T04:51:22.022Z,14.60
2022-08-22T04:54:25.226Z,14.60
2022-08-22T04:57:15.290Z,14.50
2022-08-22T04:59:44.970Z,14.50
2022-08-22T05:02:24.468Z,14.50
2022-08-22T05:05:04.900Z,14.40
2022-08-22T05:07:47.603Z,14.40
2022-08-22T05:10:33.523Z,14.50
2022-08-22T05:13:11.175Z,14.50
2022-08-22T05:15:45.845Z,14.50
2022-08-22T05:18:23.536Z,14.60
2022-08-22T05:20:59.814Z,14.60
2022-08-22T05:23:32.284Z,14.80
2022-08-22T05:26:06.179Z,14.80
2022-08-22T05:28:38.343Z,14.80
2022-08-22T05:31:13.259Z,14.90
2022-08-22T05:33:48.252Z,15.00
2022-08-22T05:36:27.014Z,15.10
2022-08-22T05:39:03.527Z,15.20
2022-08-22T05:41:39.929Z,15.30
2022-08-22T05:44:19.884Z,16.20
2022-08-22T05:46:57.361Z,15.80
2022-08-22T05:49:37.398Z,15.90
2022-08-22T05:52:17.890Z,16.20
2022-08-22T05:54:57.591Z,16.20
2022-08-22T05:57:34.754Z,16.30
2022-08-22T06:00:10.850Z,16.40
2022-08-22T06:02:59.045Z,16.60
2022-08-22T06:05:31.923Z,16.80
2022-08-22T06:08:09.153Z,17.10
2022-08-22T06:10:44.111Z,17.40
2022-08-22T06:13:25.487Z,17.60
2022-08-22T06:16:06.748Z,17.90
2022-08-22T06:21:18.845Z,18.50
2022-08-22T06:23:57.561Z,18.70
2022-08-22T06:26:31.111Z,19.00
2022-08-22T06:29:03.718Z,19.30
2022-08-22T06:31:37.927Z,19.40
2022-08-22T06:34:12.548Z,19.60
2022-08-22T06:36:46.060Z,19.80
2022-08-22T06:39:23.591Z,20.10
2022-08-22T06:42:01.116Z,20.30
2022-08-22T06:44:35.442Z,20.50
2022-08-22T06:47:11.914Z,20.60
2022-08-22T06:49:43.853Z,20.80
2022-08-22T06:52:20.220Z,20.80
2022-08-22T06:54:59.202Z,21.10
2022-08-22T06:57:34.239Z,21.40
2022-08-22T07:00:09.794Z,23.00
2022-08-22T07:02:44.186Z,21.90
2022-08-22T07:05:20.119Z,22.10
2022-08-22T07:10:24.739Z,22.20
2022-08-22T07:12:57.762Z,22.40
2022-08-22T07:15:36.630Z,22.50
2022-08-22T07:18:09.084Z,22.20
2022-08-22T07:20:45.273Z,22.10
2022-08-22T07:23:32.616Z,22.10
2022-08-22T07:26:22.977Z,22.10
2022-08-22T07:28:58.055Z,21.90
2022-08-22T07:31:38.238Z,22.50
2022-08-22T07:37:04.175Z,22.80
2022-08-22T07:39:39.521Z,23.00
2022-08-22T07:42:17.256Z,23.20
2022-08-22T07:45:06.944Z,23.40
2022-08-22T07:48:00.588Z,23.50
2022-08-22T07:50:33.665Z,23.50
2022-08-22T07:53:13.641Z,23.50
2022-08-22T07:55:49.427Z,23.70
2022-08-22T07:58:23.061Z,23.80
2022-08-22T08:00:54.077Z,24.10
2022-08-22T08:03:26.835Z,24.30
2022-08-22T08:05:56.469Z,24.50
2022-08-22T08:08:34.521Z,23.30
2022-08-22T08:11:07.150Z,25.00
2022-08-22T08:13:42.856Z,25.30
2022-08-22T08:16:19.334Z,25.50
2022-08-22T08:18:52.112Z,25.50
2022-08-22T08:21:31.084Z,25.50
2022-08-22T08:24:02.205Z,25.70
2022-08-22T08:26:36.652Z,25.80
2022-08-22T08:29:08.217Z,26.10
2022-08-22T08:31:43.380Z,26.10
2022-08-22T08:34:24.967Z,26.20
2022-08-22T08:36:59.384Z,26.10
2022-08-22T08:39:36.452Z,26.10
2022-08-22T08:42:55.182Z,26.10
2022-08-22T08:45:51.732Z,26.00
2022-08-22T08:48:53.737Z,25.80
2022-08-22T08:51:53.674Z,25.70
2022-08-22T08:54:56.010Z,25.80
2022-08-22T08:57:48.135Z,26.10
2022-08-22T09:00:29.080Z,25.60
2022-08-22T09:06:30.644Z,26.60
2022-08-22T09:09:17.222Z,26.80
2022-08-22T09:12:18.419Z,27.10
2022-08-22T09:15:26.040Z,27.40
2022-08-22T09:18:33.281Z,27.60
2022-08-22T09:21:30.765Z,27.30
2022-08-22T09:24:49.099Z,27.60
2022-08-22T09:27:31.771Z,27.60
2022-08-22T09:30:11.549Z,27.70
2022-08-22T09:32:55.751Z,27.70
2022-08-22T09:35:42.472Z,27.50
2022-08-22T09:41:14.547Z,27.20
2022-08-22T09:43:50.304Z,27.40
2022-08-22T09:46:31.510Z,27.70
2022-08-22T09:49:14.108Z,27.60
2022-08-22T09:52:05.287Z,27.80
2022-08-22T09:54:51.924Z,28.00
2022-08-22T09:57:35.622Z,28.00
2022-08-22T10:00:26.670Z,28.00
2022-08-22T10:03:17.095Z,28.10
2022-08-22T10:05:54.908Z,28.20
2022-08-22T10:08:45.914Z,28.60
2022-08-22T10:11:28.712Z,28.50
2022-08-22T10:14:06.011Z,29.10
2022-08-22T10:17:01.692Z,29.40
2022-08-22T10:19:40.135Z,29.30
2022-08-22T10:22:30.356Z,29.40
2022-08-22T10:25:33.173Z,29.50
2022-08-22T10:28:21.212Z,29.70
2022-08-22T10:31:09.457Z,29.80
2022-08-22T10:33:48.883Z,29.90
2022-08-22T10:36:32.374Z,29.80
2022-08-22T10:39:05.526Z,29.80
2022-08-22T10:42:00.223Z,30.40
2022-08-22T10:44:43.100Z,30.20
2022-08-22T10:47:22.008Z,30.60
2022-08-22T10:49:56.601Z,30.70
2022-08-22T10:52:33.123Z,31.00
2022-08-22T10:55:13.326Z,31.20
2022-08-22T10:58:06.791Z,31.10
2022-08-22T11:00:50.444Z,30.60
2022-08-22T11:03:32.867Z,30.00
2022-08-22T11:06:07.700Z,29.00
2022-08-22T11:09:16.173Z,28.70
2022-08-22T11:11:50.242Z,28.60
2022-08-22T11:15:12.421Z,28.90
2022-08-22T11:18:20.962Z,29.10
2022-08-22T11:21:01.740Z,29.50
2022-08-22T11:23:46.155Z,29.50
2022-08-22T11:26:41.682Z,29.50
2022-08-22T11:29:43.472Z,29.10
2022-08-22T11:32:25.725Z,28.80
2022-08-22T11:35:04.388Z,29.00
2022-08-22T11:37:54.949Z,29.30
2022-08-22T11:40:43.639Z,29.60
2022-08-22T11:43:37.243Z,29.70
2022-08-22T11:46:20.922Z,29.40
2022-08-22T11:49:25.611Z,29.60
2022-08-22T11:52:19.970Z,30.20
2022-08-22T11:55:12.463Z,31.10
2022-08-22T11:57:46.018Z,31.90
2022-08-22T12:00:34.932Z,31.70
2022-08-22T12:03:44.945Z,31.50
2022-08-22T12:06:41.766Z,31.60
2022-08-22T12:09:20.380Z,32.00
2022-08-22T12:12:17.116Z,32.10
2022-08-22T12:14:56.269Z,32.20
2022-08-22T12:18:02.328Z,32.00
2022-08-22T12:21:09.191Z,32.30
2022-08-22T12:24:19.125Z,32.50
2022-08-22T12:27:14.799Z,32.70
2022-08-22T12:30:20.772Z,32.30
2022-08-22T12:33:28.993Z,32.00
2022-08-22T12:39:17.465Z,32.50
2022-08-22T12:42:29.814Z,33.00
2022-08-22T12:45:29.048Z,32.50
2022-08-22T12:48:17.882Z,31.80
2022-08-22T12:50:56.020Z,31.70
2022-08-22T12:53:59.573Z,31.40
2022-08-22T12:56:52.139Z,30.40
2022-08-22T12:59:31.238Z,30.10
2022-08-22T13:02:04.899Z,30.00
2022-08-22T13:04:35.725Z,29.50
2022-08-22T13:07:23.738Z,28.90
2022-08-22T13:09:57.773Z,27.90
2022-08-22T13:12:35.166Z,27.30
2022-08-22T13:15:25.459Z,26.60
2022-08-22T13:18:08.736Z,26.30
2022-08-22T13:20:51.077Z,26.30
2022-08-22T13:23:26.013Z,26.20
2022-08-22T13:26:07.451Z,25.90
2022-08-22T13:28:45.949Z,25.70
2022-08-22T13:31:26.753Z,25.60
2022-08-22T13:34:02.153Z,25.70
2022-08-22T13:36:41.045Z,25.90
2022-08-22T13:39:29.655Z,26.10
2022-08-22T13:42:14.228Z,26.80
2022-08-22T13:44:50.969Z,27.50
2022-08-22T13:49:55.489Z,29.40
2022-08-22T13:52:32.295Z,30.00
2022-08-22T13:58:03.053Z,30.80
2022-08-22T14:01:28.599Z,30.90
2022-08-22T14:04:05.592Z,30.80
2022-08-22T14:06:55.597Z,30.60
2022-08-22T14:09:43.126Z,30.90
2022-08-22T14:12:19.072Z,30.40
2022-08-22T14:14:55.895Z,30.10
2022-08-22T14:17:38.445Z,29.60
2022-08-22T14:20:32.680Z,29.60
2022-08-22T14:23:08.811Z,29.50
2022-08-22T14:25:40.487Z,29.30
2022-08-22T14:28:21.657Z,29.80
2022-08-22T14:31:03.539Z,29.70
2022-08-22T14:33:40.868Z,29.40
2022-08-22T14:36:19.237Z,29.40
2022-08-22T14:38:56.164Z,28.90
2022-08-22T14:41:55.420Z,28.30
2022-08-22T14:44:30.456Z,27.90
2022-08-22T14:47:32.204Z,28.20
2022-08-22T14:49:59.428Z,28.30
2022-08-22T14:52:40.566Z,28.00
2022-08-22T14:55:17.143Z,27.60
2022-08-22T14:57:53.872Z,26.90
2022-08-22T15:00:34.941Z,26.30
2022-08-22T15:03:15.301Z,25.80
2022-08-22T15:05:51.031Z,25.10
2022-08-22T15:08:33.453Z,24.60
2022-08-22T15:11:22.116Z,24.00
2022-08-22T15:14:05.611Z,23.70
2022-08-22T15:16:38.132Z,23.50
2022-08-22T15:22:20.044Z,24.00
2022-08-22T15:25:02.126Z,24.20
2022-08-22T15:27:35.733Z,24.30
2022-08-22T15:30:20.617Z,25.10
2022-08-22T15:32:50.167Z,24.70
2022-08-22T15:35:31.492Z,25.10
2022-08-22T15:38:06.627Z,25.40
2022-08-22T15:40:42.279Z,25.70
2022-08-22T15:43:23.038Z,25.90
2022-08-22T15:46:09.895Z,25.90
2022-08-22T15:51:40.849Z,26.00
2022-08-22T15:54:24.665Z,26.00
2022-08-22T15:57:19.375Z,25.70
2022-08-22T15:59:58.888Z,25.10
2022-08-22T16:02:37.470Z,24.80
2022-08-22T16:08:05.791Z,24.30
2022-08-22T16:10:42.446Z,24.20
2022-08-22T16:13:40.014Z,24.00
2022-08-22T16:16:34.602Z,23.90
2022-08-22T16:19:28.496Z,23.80
2022-08-22T16:22:15.529Z,23.80
2022-08-22T16:25:10.282Z,23.70
2022-08-22T16:30:37.417Z,23.60
2022-08-22T16:33:08.809Z,23.60
2022-08-22T16:36:41.779Z,23.80
2022-08-22T16:39:29.670Z,24.20
2022-08-22T16:42:28.376Z,24.20
2022-08-22T16:45:13.684Z,24.20
2022-08-22T16:47:56.632Z,24.30
2022-08-22T16:50:36.453Z,24.40
2022-08-22T16:53:11.180Z,24.40
2022-08-22T16:56:13.660Z,24.30
2022-08-22T16:59:24.481Z,24.10
2022-08-22T17:02:26.089Z,23.90
2022-08-22T17:05:19.661Z,23.60
2022-08-22T17:08:12.182Z,23.60
2022-08-22T17:13:49.942Z,23.40
2022-08-22T17:16:49.763Z,23.10
2022-08-22T17:22:28.463Z,23.00
2022-08-22T17:25:21.767Z,22.80
2022-08-22T17:30:37.009Z,22.30
2022-08-22T17:33:18.403Z,22.20
2022-08-22T17:36:07.155Z,22.00
2022-08-22T17:39:26.352Z,21.90
2022-08-22T17:42:16.543Z,21.70
2022-08-22T17:45:04.483Z,21.50
2022-08-22T17:47:45.804Z,21.40
2022-08-22T17:50:26.675Z,21.10
2022-08-22T17:53:04.476Z,21.00
2022-08-22T17:55:59.909Z,20.80
2022-08-22T17:58:43.695Z,20.70
2022-08-22T18:01:38.433Z,20.50
2022-08-22T18:06:57.078Z,20.00
2022-08-22T18:09:39.920Z,20.00
2022-08-22T18:12:22.526Z,19.70
2022-08-22T18:14:59.285Z,19.50
2022-08-22T18:17:38.109Z,19.40
2022-08-22T18:20:17.038Z,19.20
2022-08-22T18:22:54.897Z,19.10
2022-08-22T18:25:44.612Z,15.80
2022-08-22T18:28:29.234Z,18.80
2022-08-22T18:33:38.530Z,18.60
2022-08-22T18:36:16.001Z,18.50
2022-08-22T18:38:56.573Z,18.40
2022-08-22T18:41:36.877Z,18.40
2022-08-22T18:46:47.181Z,18.20
2022-08-22T18:49:41.878Z,18.10
2022-08-22T18:52:38.362Z,18.00
2022-08-22T18:55:45.377Z,17.80
2022-08-22T18:58:49.433Z,17.70
2022-08-22T19:01:51.972Z,17.60
2022-08-22T19:08:02.341Z,17.60
2022-08-22T19:10:55.481Z,17.60
2022-08-22T19:17:16.294Z,17.50
2022-08-22T19:20:19.093Z,17.40
2022-08-22T19:25:28.375Z,17.30
2022-08-22T19:31:23.526Z,17.20
2022-08-22T19:34:15.848Z,17.10
2022-08-22T19:37:06.337Z,17.10
2022-08-22T19:39:55.501Z,17.10
2022-08-22T19:42:41.653Z,17.00
2022-08-22T19:45:26.564Z,17.00
2022-08-22T19:50:34.539Z,16.90
2022-08-22T19:53:35.713Z,16.80
2022-08-22T19:56:23.943Z,16.70
2022-08-22T19:59:07.366Z,16.70
2022-08-22T20:01:56.047Z,16.30
2022-08-22T20:04:47.364Z,16.60
2022-08-22T20:10:15.851Z,16.40
2022-08-22T20:13:19.103Z,16.40
2022-08-22T20:16:19.795Z,16.30
2022-08-22T20:19:20.165Z,16.20
2022-08-22T20:21:59.186Z,16.10
2022-08-22T20:24:40.006Z,16.10
2022-08-22T20:30:03.267Z,16.10
2022-08-22T20:32:38.705Z,16.00
2022-08-22T20:35:08.790Z,16.00
2022-08-22T20:38:05.949Z,16.00
2022-08-22T20:40:55.377Z,15.90
2022-08-22T20:43:34.409Z,15.90
2022-08-22T20:46:23.983Z,16.00
2022-08-22T20:48:57.046Z,15.90
2022-08-22T20:54:01.499Z,15.90
2022-08-22T20:59:31.933Z,15.80
2022-08-22T21:02:13.925Z,15.80
2022-08-22T21:04:52.711Z,15.70
2022-08-22T21:07:29.625Z,15.70
2022-08-22T21:10:23.162Z,15.70
2022-08-22T21:13:10.973Z,15.70
2022-08-22T21:15:42.923Z,15.70
2022-08-22T21:18:14.842Z,13.80
2022-08-22T21:20:43.235Z,15.60
2022-08-22T21:23:16.846Z,15.60
2022-08-22T21:25:56.691Z,15.60
2022-08-22T21:28:35.941Z,16.60
2022-08-22T21:31:14.377Z,15.60
2022-08-22T21:33:48.305Z,16.20
2022-08-22T21:36:24.386Z,15.60
2022-08-22T21:41:31.504Z,15.60
2022-08-22T21:44:28.878Z,15.60
2022-08-22T21:46:59.050Z,15.60
2022-08-22T21:49:31.083Z,15.60
2022-08-22T21:51:59.338Z,15.50
2022-08-22T21:54:40.843Z,15.50
2022-08-22T21:57:33.524Z,15.50
2022-08-22T22:00:02.200Z,16.00
2022-08-22T22:02:43.696Z,15.30
2022-08-22T22:05:17.151Z,14.70
2022-08-22T22:07:48.146Z,15.40
2022-08-22T22:10:20.192Z,15.40
2022-08-22T22:12:52.338Z,15.30
2022-08-22T22:17:51.833Z,15.30
2022-08-22T22:22:52.503Z,15.20
2022-08-22T22:25:40.704Z,15.10
2022-08-22T22:28:17.426Z,15.00
2022-08-22T22:30:50.464Z,14.90
2022-08-22T22:33:19.076Z,14.90
2022-08-22T22:35:50.516Z,14.90
2022-08-22T22:38:23.382Z,14.80
2022-08-22T22:43:21.241Z,14.80
2022-08-22T22:45:49.958Z,14.70
2022-08-22T22:48:24.271Z,14.90
2022-08-22T22:50:55.830Z,14.70
2022-08-22T22:53:28.604Z,14.70
2022-08-22T22:56:10.070Z,14.80
2022-08-22T22:58:40.489Z,15.00
2022-08-22T23:01:11.164Z,15.00
2022-08-22T23:03:39.857Z,15.00
2022-08-22T23:06:14.906Z,15.00
2022-08-22T23:11:15.325Z,14.80
2022-08-22T23:13:43.892Z,14.90
2022-08-22T23:16:16.950Z,14.60
2022-08-22T23:18:46.793Z,14.50
2022-08-22T23:21:21.052Z,14.50
2022-08-22T23:23:50.675Z,14.50
2022-08-22T23:26:19.330Z,14.40
2022-08-22T23:28:47.779Z,14.30
2022-08-22T23:31:19.689Z,14.20
2022-08-22T23:33:48.392Z,14.20
2022-08-22T23:36:21.553Z,14.30
2022-08-22T23:38:52.231Z,14.30
2022-08-22T23:41:21.902Z,14.30
2022-08-22T23:43:55.051Z,14.20
2022-08-22T23:46:26.567Z,14.20
2022-08-22T23:48:55.965Z,15.30
2022-08-22T23:51:26.859Z,14.10
2022-08-22T23:53:57.882Z,14.00
2022-08-22T23:56:30.545Z,13.90
2022-08-22T23:59:00.690Z,14.00
